createdAt,value
2023-02-22T00:01:46.814Z,5.42
2023-02-22T00:04:15.575Z,5.47
2023-02-22T00:06:44.827Z,5.85
2023-02-22T00:09:13.548Z,6.08
2023-02-22T00:11:47.110Z,4.95
2023-02-22T00:14:14.695Z,4.75
2023-02-22T00:16:42.270Z,3.92
2023-02-22T00:19:10.200Z,4.00
2023-02-22T00:21:37.995Z,4.42
2023-02-22T00:24:07.693Z,4.58
2023-02-22T00:26:35.652Z,4.87
2023-02-22T00:29:03.275Z,4.90
2023-02-22T00:31:30.850Z,4.33
2023-02-22T00:33:59.988Z,4.92
2023-02-22T00:36:27.688Z,9.00
2023-02-22T00:38:56.260Z,7.92
2023-02-22T00:41:23.907Z,9.18
2023-02-22T00:43:51.408Z,8.30
2023-02-22T00:46:20.200Z,11.55
2023-02-22T00:48:47.864Z,16.45
2023-02-22T00:51:15.865Z,18.07
2023-02-22T00:53:43.769Z,15.98
2023-02-22T00:56:11.422Z,13.25
2023-02-22T00:58:39.293Z,14.75
2023-02-22T01:01:07.157Z,13.45
2023-02-22T01:03:34.901Z,12.47
2023-02-22T01:06:02.565Z,11.70
2023-02-22T01:08:32.206Z,11.65
2023-02-22T01:11:00.302Z,11.97
2023-02-22T01:13:28.116Z,13.40
2023-02-22T01:15:56.582Z,9.23
2023-02-22T01:18:25.650Z,7.65
2023-02-22T01:20:54.414Z,7.83
2023-02-22T01:23:25.816Z,8.08
2023-02-22T01:26:00.796Z,6.62
2023-02-22T01:28:30.709Z,6.22
2023-02-22T01:31:02.785Z,5.60
2023-02-22T01:33:31.966Z,7.25
2023-02-22T01:36:00.461Z,5.95
2023-02-22T01:38:29.152Z,6.22
2023-02-22T01:40:57.306Z,6.50
2023-02-22T01:43:31.781Z,6.47
2023-02-22T01:46:10.617Z,6.08
2023-02-22T01:48:47.197Z,6.35
2023-02-22T01:51:22.525Z,5.58
2023-02-22T01:53:58.193Z,5.85
2023-02-22T01:56:29.011Z,13.95
2023-02-22T01:59:02.300Z,9.98
2023-02-22T02:01:30.638Z,10.43
2023-02-22T02:04:01.561Z,9.33
2023-02-22T02:06:33.396Z,9.83
2023-02-22T02:09:23.339Z,5.78
2023-02-22T02:11:51.194Z,4.42
2023-02-22T02:14:20.718Z,4.08
2023-02-22T02:16:52.689Z,3.15
2023-02-22T02:19:51.151Z,3.50
2023-02-22T02:22:49.164Z,2.90
2023-02-22T02:25:54.089Z,2.20
2023-02-22T02:29:03.305Z,2.40
2023-02-22T02:32:17.243Z,2.55
2023-02-22T02:35:04.768Z,3.80
2023-02-22T02:37:46.487Z,2.87
2023-02-22T02:40:31.616Z,2.70
2023-02-22T02:43:42.933Z,2.52
2023-02-22T02:46:28.639Z,2.70
2023-02-22T02:49:01.651Z,2.55
2023-02-22T02:54:01.472Z,2.83
2023-02-22T02:56:30.480Z,2.50
2023-02-22T02:58:58.138Z,2.92
2023-02-22T03:01:55.698Z,2.62
2023-02-22T03:04:50.272Z,3.25
2023-02-22T03:07:56.998Z,3.10
2023-02-22T03:10:58.697Z,3.10
2023-02-22T03:13:44.854Z,2.95
2023-02-22T03:16:41.904Z,3.27
2023-02-22T03:19:15.105Z,2.65
2023-02-22T03:22:23.593Z,2.87
2023-02-22T03:25:10.923Z,2.87
2023-02-22T03:27:53.606Z,2.98
2023-02-22T03:30:36.256Z,3.70
2023-02-22T03:33:12.248Z,2.95
2023-02-22T03:35:48.291Z,3.37
2023-02-22T03:38:19.590Z,2.90
2023-02-22T03:40:53.904Z,3.12
2023-02-22T03:43:29.749Z,2.98
2023-02-22T03:46:01.195Z,3.33
2023-02-22T03:48:53.861Z,3.05
2023-02-22T03:51:22.818Z,3.52
2023-02-22T03:53:54.180Z,3.25
2023-02-22T03:56:34.490Z,3.20
2023-02-22T03:59:07.240Z,2.58
2023-02-22T04:01:39.895Z,2.60
2023-02-22T04:04:10.809Z,3.20
2023-02-22T04:06:39.223Z,4.15
2023-02-22T04:09:08.530Z,3.83
2023-02-22T04:11:37.714Z,3.98
2023-02-22T04:14:08.442Z,4.03
2023-02-22T04:16:38.425Z,3.85
2023-02-22T04:19:16.708Z,4.83
2023-02-22T04:21:50.036Z,10.75
2023-02-22T04:24:20.787Z,11.80
2023-02-22T04:26:53.463Z,12.35
2023-02-22T04:29:22.275Z,11.10
2023-02-22T04:31:50.166Z,11.73
2023-02-22T04:34:18.149Z,86.63
2023-02-22T04:36:46.665Z,69.35
2023-02-22T04:39:15.486Z,18.07
2023-02-22T04:41:44.946Z,23.55
2023-02-22T04:44:13.421Z,18.48
2023-02-22T04:46:41.586Z,17.30
2023-02-22T04:49:09.761Z,11.90
2023-02-22T04:51:39.112Z,12.40
2023-02-22T04:54:08.923Z,12.85
2023-02-22T04:56:38.210Z,22.10
2023-02-22T04:59:06.578Z,23.92
2023-02-22T05:01:36.489Z,27.07
2023-02-22T05:04:06.543Z,28.17
2023-02-22T05:06:36.265Z,16.07
2023-02-22T05:09:05.856Z,12.00
2023-02-22T05:11:33.802Z,18.27
2023-02-22T05:14:01.418Z,17.00
2023-02-22T05:16:29.136Z,18.15
2023-02-22T05:18:57.850Z,20.17
2023-02-22T05:21:25.471Z,22.22
2023-02-22T05:23:53.352Z,21.70
2023-02-22T05:26:21.207Z,21.27
2023-02-22T05:28:48.885Z,20.02
2023-02-22T05:31:17.236Z,22.58
2023-02-22T05:33:45.135Z,20.35
2023-02-22T05:36:12.850Z,19.60
2023-02-22T05:38:42.447Z,20.02
2023-02-22T05:41:12.254Z,18.20
2023-02-22T05:43:41.090Z,17.95
2023-02-22T05:46:08.971Z,17.65
2023-02-22T05:48:36.800Z,18.82
2023-02-22T05:51:05.015Z,18.25
2023-02-22T05:53:32.824Z,19.17
2023-02-22T05:56:00.391Z,19.73
2023-02-22T05:58:27.966Z,21.97
2023-02-22T06:00:55.706Z,30.35
2023-02-22T06:03:25.369Z,33.65
2023-02-22T06:05:53.138Z,33.73
2023-02-22T06:08:21.087Z,37.30
2023-02-22T06:10:48.744Z,59.75
2023-02-22T06:13:16.362Z,41.92
2023-02-22T06:15:43.902Z,48.42
2023-02-22T06:18:11.517Z,43.68
2023-02-22T06:20:39.121Z,44.03
2023-02-22T06:23:06.738Z,45.52
2023-02-22T06:25:34.433Z,47.38
2023-02-22T06:28:02.477Z,46.02
2023-02-22T06:30:31.091Z,49.88
2023-02-22T06:32:58.819Z,69.53
2023-02-22T06:35:26.382Z,82.92
2023-02-22T06:37:54.001Z,79.62
2023-02-22T06:40:21.501Z,72.00
2023-02-22T06:42:49.600Z,55.38
2023-02-22T06:45:18.271Z,42.98
2023-02-22T06:47:46.968Z,39.83
2023-02-22T06:50:28.250Z,31.80
2023-02-22T06:52:56.709Z,26.57
2023-02-22T06:55:28.138Z,27.30
2023-02-22T06:57:56.255Z,32.75
2023-02-22T07:00:26.430Z,35.10
2023-02-22T07:02:54.504Z,32.48
2023-02-22T07:05:24.452Z,33.67
2023-02-22T07:07:55.205Z,33.65
2023-02-22T07:10:27.984Z,30.20
2023-02-22T07:12:55.851Z,28.70
2023-02-22T07:15:28.714Z,20.17
2023-02-22T07:17:56.989Z,15.08
2023-02-22T07:20:26.981Z,12.03
2023-02-22T07:22:55.070Z,9.43
2023-02-22T07:25:23.225Z,10.53
2023-02-22T07:27:53.336Z,9.60
2023-02-22T07:30:27.357Z,9.70
2023-02-22T07:32:55.842Z,11.20
2023-02-22T07:35:36.395Z,13.30
2023-02-22T07:38:08.726Z,5.50
2023-02-22T07:40:38.941Z,15.28
2023-02-22T07:43:27.869Z,12.60
2023-02-22T07:45:58.518Z,3.50
2023-02-22T07:48:29.339Z,2.83
2023-02-22T07:50:58.408Z,2.60
2023-02-22T07:53:33.068Z,2.77
2023-02-22T07:56:04.868Z,2.65
2023-02-22T07:58:34.917Z,2.58
2023-02-22T08:01:03.097Z,2.87
2023-02-22T08:03:36.777Z,2.50
2023-02-22T08:06:07.154Z,2.90
2023-02-22T08:08:35.359Z,3.02
2023-02-22T08:11:03.686Z,2.92
2023-02-22T08:13:32.312Z,2.85
2023-02-22T08:15:59.982Z,2.40
2023-02-22T08:18:27.505Z,2.60
2023-02-22T08:20:55.056Z,2.87
2023-02-22T08:23:26.408Z,2.70
2023-02-22T08:25:55.476Z,2.60
2023-02-22T08:28:24.627Z,3.20
2023-02-22T08:30:52.581Z,2.62
2023-02-22T08:33:20.733Z,2.45
2023-02-22T08:35:49.493Z,3.00
2023-02-22T08:38:25.641Z,2.90
2023-02-22T08:40:53.149Z,3.05
2023-02-22T08:43:21.791Z,3.15
2023-02-22T08:45:51.110Z,3.00
2023-02-22T08:48:20.478Z,2.83
2023-02-22T08:50:48.330Z,2.85
2023-02-22T08:53:17.302Z,3.00
2023-02-22T08:55:45.687Z,3.00
2023-02-22T08:58:14.156Z,2.85
2023-02-22T09:00:44.126Z,3.17
2023-02-22T09:03:14.514Z,3.02
2023-02-22T09:05:43.629Z,3.40
2023-02-22T09:08:11.677Z,2.95
2023-02-22T09:10:40.143Z,3.00
2023-02-22T09:13:08.265Z,3.02
2023-02-22T09:15:35.975Z,2.87
2023-02-22T09:18:07.880Z,3.00
2023-02-22T09:20:36.221Z,2.77
2023-02-22T09:23:06.158Z,2.55
2023-02-22T09:25:34.090Z,2.77
2023-02-22T09:28:02.763Z,2.98
2023-02-22T09:30:35.788Z,2.77
2023-02-22T09:33:11.531Z,2.62
2023-02-22T09:35:45.646Z,2.75
2023-02-22T09:38:17.815Z,2.70
2023-02-22T09:40:49.953Z,2.65
2023-02-22T09:43:47.245Z,2.60
2023-02-22T09:46:37.952Z,2.70
2023-02-22T09:49:41.444Z,3.15
2023-02-22T09:52:23.475Z,3.03
2023-02-22T09:55:11.558Z,4.47
2023-02-22T09:57:42.581Z,3.10
2023-02-22T10:00:20.271Z,2.87
2023-02-22T10:03:27.858Z,2.98
2023-02-22T10:06:14.568Z,3.12
2023-02-22T10:08:44.589Z,3.50
2023-02-22T10:11:20.612Z,2.90
2023-02-22T10:14:10.597Z,2.58
2023-02-22T10:17:05.803Z,2.62
2023-02-22T10:19:59.338Z,3.42
2023-02-22T10:22:50.913Z,2.52
2023-02-22T10:25:26.288Z,3.00
2023-02-22T10:28:04.562Z,2.70
2023-02-22T10:30:37.784Z,2.52
2023-02-22T10:33:10.403Z,2.87
2023-02-22T10:35:40.797Z,2.70
2023-02-22T10:38:24.880Z,2.70
2023-02-22T10:41:13.169Z,4.60
2023-02-22T10:43:43.144Z,2.52
2023-02-22T10:46:18.192Z,2.30
2023-02-22T10:48:50.286Z,2.08
2023-02-22T10:51:17.948Z,4.75
2023-02-22T10:53:49.421Z,4.12
2023-02-22T10:56:24.531Z,3.15
2023-02-22T10:59:01.386Z,3.10
2023-02-22T11:01:34.547Z,4.42
2023-02-22T11:04:09.976Z,2.80
2023-02-22T11:06:39.393Z,2.40
2023-02-22T11:09:21.001Z,3.15
2023-02-22T11:11:52.590Z,3.08
2023-02-22T11:14:29.891Z,3.17
2023-02-22T11:16:59.265Z,2.45
2023-02-22T11:19:32.353Z,2.70
2023-02-22T11:22:16.901Z,2.70
2023-02-22T11:24:52.657Z,2.72
2023-02-22T11:27:25.513Z,2.30
2023-02-22T11:29:53.425Z,2.20
2023-02-22T11:32:21.924Z,2.22
2023-02-22T11:35:00.234Z,1.80
2023-02-22T11:37:32.401Z,2.35
2023-02-22T11:40:15.840Z,2.08
2023-02-22T11:42:43.572Z,2.17
2023-02-22T11:45:23.000Z,2.22
2023-02-22T11:48:00.650Z,2.50
2023-02-22T11:50:46.013Z,2.90
2023-02-22T11:53:30.923Z,5.87
2023-02-22T11:56:38.553Z,3.50
2023-02-22T11:59:40.869Z,2.60
2023-02-22T12:02:31.366Z,2.20
2023-02-22T12:05:12.233Z,2.22
2023-02-22T12:08:19.216Z,2.22
2023-02-22T12:11:20.389Z,2.50
2023-02-22T12:13:53.450Z,2.17
2023-02-22T12:16:38.808Z,2.25
2023-02-22T12:19:30.380Z,2.40
2023-02-22T12:22:03.680Z,2.37
2023-02-22T12:24:45.779Z,2.22
2023-02-22T12:27:21.966Z,2.77
2023-02-22T12:30:05.499Z,2.27
2023-02-22T12:32:40.259Z,2.30
2023-02-22T12:35:28.890Z,3.10
2023-02-22T12:38:22.555Z,3.15
2023-02-22T12:41:22.448Z,4.37
2023-02-22T12:44:04.237Z,3.08
2023-02-22T12:46:48.847Z,2.33
2023-02-22T12:49:27.937Z,2.65
2023-02-22T12:52:15.963Z,3.30
2023-02-22T12:55:06.399Z,2.50
2023-02-22T12:58:03.797Z,2.55
2023-02-22T13:00:43.235Z,2.75
2023-02-22T13:03:40.050Z,7.80
2023-02-22T13:06:44.062Z,2.98
2023-02-22T13:09:49.523Z,2.52
2023-02-22T13:12:39.128Z,3.10
2023-02-22T13:15:36.682Z,2.80
2023-02-22T13:18:33.737Z,2.90
2023-02-22T13:21:29.844Z,13.85
2023-02-22T13:24:18.059Z,17.20
2023-02-22T13:26:50.954Z,21.52
2023-02-22T13:29:29.428Z,6.80
2023-02-22T13:32:11.365Z,3.95
2023-02-22T13:35:05.634Z,4.28
2023-02-22T13:38:05.632Z,3.40
2023-02-22T13:41:05.097Z,7.65
2023-02-22T13:44:05.592Z,3.10
2023-02-22T13:46:54.382Z,2.87
2023-02-22T13:49:39.282Z,3.08
2023-02-22T13:52:13.412Z,2.30
2023-02-22T13:54:54.970Z,2.20
2023-02-22T13:57:31.603Z,2.27
2023-02-22T14:00:23.221Z,3.02
2023-02-22T14:03:16.537Z,2.20
2023-02-22T14:05:51.920Z,2.27
2023-02-22T14:08:30.000Z,2.20
2023-02-22T14:11:06.649Z,2.90
2023-02-22T14:13:59.499Z,3.12
2023-02-22T14:16:30.090Z,3.65
2023-02-22T14:19:20.943Z,3.45
2023-02-22T14:22:03.568Z,2.20
2023-02-22T14:24:46.831Z,3.12
2023-02-22T14:27:19.209Z,2.90
2023-02-22T14:29:57.290Z,2.12
2023-02-22T14:32:31.986Z,2.62
2023-02-22T14:35:11.657Z,2.52
2023-02-22T14:37:40.234Z,4.12
2023-02-22T14:40:27.158Z,2.30
2023-02-22T14:43:05.732Z,2.35
2023-02-22T14:45:36.887Z,2.55
2023-02-22T14:48:38.953Z,2.72
2023-02-22T14:51:26.494Z,2.42
2023-02-22T14:53:58.198Z,2.92
2023-02-22T14:56:33.107Z,3.50
2023-02-22T14:59:26.376Z,3.60
2023-02-22T15:02:12.976Z,3.55
2023-02-22T15:04:43.414Z,4.55
2023-02-22T15:07:28.132Z,4.10
2023-02-22T15:10:17.104Z,3.42
2023-02-22T15:13:10.063Z,4.17
2023-02-22T15:15:49.306Z,3.83
2023-02-22T15:18:42.047Z,5.03
2023-02-22T15:21:17.592Z,4.40
2023-02-22T15:23:49.460Z,4.58
2023-02-22T15:26:36.861Z,5.05
2023-02-22T15:29:22.649Z,6.03
2023-02-22T15:31:52.409Z,4.70
2023-02-22T15:34:30.581Z,4.05
2023-02-22T15:37:22.682Z,6.03
2023-02-22T15:39:53.884Z,10.80
2023-02-22T15:42:22.562Z,15.20
2023-02-22T15:44:55.697Z,8.03
2023-02-22T15:47:31.478Z,12.88
2023-02-22T15:50:22.753Z,10.30
2023-02-22T15:53:04.241Z,13.88
2023-02-22T15:55:39.326Z,11.88
2023-02-22T15:58:18.162Z,7.90
2023-02-22T16:01:01.969Z,6.60
2023-02-22T16:03:46.675Z,8.68
2023-02-22T16:06:22.708Z,14.93
2023-02-22T16:08:55.431Z,14.28
2023-02-22T16:11:37.455Z,12.03
2023-02-22T16:14:25.181Z,11.48
2023-02-22T16:17:27.195Z,11.93
2023-02-22T16:19:56.884Z,15.32
2023-02-22T16:22:35.555Z,15.32
2023-02-22T16:25:21.924Z,14.10
2023-02-22T16:28:02.363Z,10.15
2023-02-22T16:30:37.296Z,19.70
2023-02-22T16:33:10.914Z,16.02
2023-02-22T16:35:39.093Z,15.35
2023-02-22T16:38:10.704Z,24.00
2023-02-22T16:40:46.367Z,19.82
2023-02-22T16:43:17.804Z,20.52
2023-02-22T16:45:45.921Z,21.07
2023-02-22T16:48:36.557Z,22.55
2023-02-22T16:51:25.488Z,22.50
2023-02-22T16:53:55.297Z,20.00
2023-02-22T16:56:30.889Z,21.48
2023-02-22T16:59:02.985Z,23.02
2023-02-22T17:01:34.307Z,23.73
2023-02-22T17:04:02.176Z,23.22
2023-02-22T17:06:32.109Z,27.00
2023-02-22T17:08:59.706Z,28.20
2023-02-22T17:11:27.260Z,26.30
2023-02-22T17:13:54.779Z,26.95
2023-02-22T17:16:22.721Z,22.82
2023-02-22T17:18:50.856Z,25.23
2023-02-22T17:21:18.520Z,32.17
2023-02-22T17:23:47.047Z,28.95
2023-02-22T17:26:16.583Z,35.55
2023-02-22T17:28:44.839Z,42.83
2023-02-22T17:31:22.570Z,50.78
2023-02-22T17:33:51.048Z,67.97
2023-02-22T17:36:20.243Z,74.22
2023-02-22T17:38:49.402Z,80.45
2023-02-22T17:41:17.146Z,63.28
2023-02-22T17:43:44.576Z,51.98
2023-02-22T17:46:12.165Z,41.42
2023-02-22T17:48:39.682Z,35.45
2023-02-22T17:51:10.221Z,34.60
2023-02-22T17:53:38.807Z,36.15
2023-02-22T17:56:13.714Z,42.05
2023-02-22T17:58:41.538Z,38.98
2023-02-22T18:01:26.590Z,38.45
2023-02-22T18:03:57.810Z,48.15
2023-02-22T18:06:29.383Z,54.77
2023-02-22T18:08:59.461Z,71.15
2023-02-22T18:11:31.063Z,80.77
2023-02-22T18:13:58.916Z,87.82
2023-02-22T18:16:27.144Z,82.00
2023-02-22T18:18:57.182Z,67.45
2023-02-22T18:21:26.202Z,60.25
2023-02-22T18:23:54.767Z,63.92
2023-02-22T18:26:24.007Z,55.48
2023-02-22T18:28:53.132Z,45.15
2023-02-22T18:31:22.308Z,45.50
2023-02-22T18:33:52.168Z,47.73
2023-02-22T18:36:22.138Z,48.20
2023-02-22T18:38:52.599Z,47.55
2023-02-22T18:41:25.990Z,41.88
2023-02-22T18:43:54.743Z,35.73
2023-02-22T18:46:24.656Z,35.33
2023-02-22T18:48:55.402Z,38.40
2023-02-22T18:51:25.335Z,37.93
2023-02-22T18:53:57.329Z,37.33
2023-02-22T18:56:27.483Z,36.90
2023-02-22T18:58:58.481Z,44.58
2023-02-22T19:01:27.165Z,48.42
2023-02-22T19:03:55.216Z,40.73
2023-02-22T19:06:22.905Z,43.25
2023-02-22T19:08:51.341Z,37.53
2023-02-22T19:11:24.360Z,28.98
2023-02-22T19:13:56.590Z,28.27
2023-02-22T19:16:26.539Z,28.40
2023-02-22T19:18:56.412Z,35.20
2023-02-22T19:21:25.811Z,32.80
2023-02-22T19:23:56.242Z,30.50
2023-02-22T19:26:27.365Z,28.85
2023-02-22T19:28:58.168Z,29.35
2023-02-22T19:31:33.046Z,25.57
2023-02-22T19:34:10.328Z,22.22
2023-02-22T19:36:47.066Z,21.45
2023-02-22T19:39:17.622Z,23.18
2023-02-22T19:41:46.281Z,28.05
2023-02-22T19:44:13.901Z,25.90
2023-02-22T19:46:41.416Z,24.98
2023-02-22T19:49:09.282Z,26.12
2023-02-22T19:51:37.059Z,26.70
2023-02-22T19:54:11.977Z,30.77
2023-02-22T19:56:40.222Z,28.60
2023-02-22T19:59:12.164Z,25.27
2023-02-22T20:01:43.666Z,22.75
2023-02-22T20:04:17.958Z,32.15
2023-02-22T20:06:47.267Z,36.63
2023-02-22T20:09:22.857Z,58.00
2023-02-22T20:11:51.383Z,38.88
2023-02-22T20:14:22.950Z,37.75
2023-02-22T20:16:52.393Z,44.42
2023-02-22T20:19:22.038Z,34.98
2023-02-22T20:21:51.905Z,28.98
2023-02-22T20:24:19.326Z,25.37
2023-02-22T20:26:48.387Z,26.55
2023-02-22T20:29:16.947Z,24.65
2023-02-22T20:31:49.378Z,20.72
2023-02-22T20:34:17.213Z,17.42
2023-02-22T20:36:44.934Z,18.42
2023-02-22T20:39:14.021Z,19.77
2023-02-22T20:41:45.750Z,20.35
2023-02-22T20:44:17.701Z,24.90
2023-02-22T20:46:46.555Z,24.27
2023-02-22T20:49:18.444Z,19.57
2023-02-22T20:51:47.526Z,15.93
2023-02-22T20:54:16.517Z,14.63
2023-02-22T20:56:46.832Z,24.18
2023-02-22T20:59:17.888Z,21.05
2023-02-22T21:01:47.859Z,17.65
2023-02-22T21:04:16.077Z,27.32
2023-02-22T21:06:44.135Z,22.90
2023-02-22T21:09:15.314Z,21.00
2023-02-22T21:11:44.756Z,26.62
2023-02-22T21:14:16.094Z,19.12
2023-02-22T21:16:48.773Z,15.68
2023-02-22T21:19:22.249Z,14.13
2023-02-22T21:21:50.875Z,14.13
2023-02-22T21:24:18.533Z,18.77
2023-02-22T21:26:46.007Z,18.95
2023-02-22T21:29:13.593Z,22.27
2023-02-22T21:31:41.212Z,22.55
2023-02-22T21:34:12.897Z,22.77
2023-02-22T21:36:40.243Z,24.37
2023-02-22T21:39:09.547Z,23.15
2023-02-22T21:41:39.749Z,22.65
2023-02-22T21:44:07.120Z,24.00
2023-02-22T21:46:34.734Z,25.43
2023-02-22T21:49:02.563Z,25.32
2023-02-22T21:51:32.617Z,27.00
2023-02-22T21:54:03.741Z,26.62
2023-02-22T21:56:35.349Z,25.62
2023-02-22T21:59:13.120Z,27.93
2023-02-22T22:01:49.358Z,31.25
2023-02-22T22:04:20.725Z,30.70
2023-02-22T22:06:51.572Z,30.00
2023-02-22T22:09:24.335Z,24.67
2023-02-22T22:11:57.803Z,22.03
2023-02-22T22:14:26.642Z,21.80
2023-02-22T22:16:58.012Z,22.50
2023-02-22T22:19:28.693Z,22.45
2023-02-22T22:21:57.612Z,22.90
2023-02-22T22:24:28.132Z,26.40
2023-02-22T22:26:55.911Z,28.65
2023-02-22T22:29:28.708Z,26.52
2023-02-22T22:31:56.910Z,25.50
2023-02-22T22:34:26.814Z,30.55
2023-02-22T22:36:56.858Z,30.68
2023-02-22T22:39:26.384Z,25.80
2023-02-22T22:41:54.429Z,30.72
2023-02-22T22:44:22.631Z,38.30
2023-02-22T22:46:52.797Z,30.05
2023-02-22T22:49:20.365Z,23.85
2023-02-22T22:51:48.184Z,20.50
2023-02-22T22:54:15.915Z,19.25
2023-02-22T22:56:44.488Z,19.07
2023-02-22T22:59:12.834Z,18.27
2023-02-22T23:01:46.661Z,18.80
2023-02-22T23:04:16.909Z,16.77
2023-02-22T23:06:49.937Z,15.40
2023-02-22T23:09:23.968Z,17.52
2023-02-22T23:12:00.899Z,18.35
2023-02-22T23:14:30.621Z,20.17
2023-02-22T23:17:02.033Z,20.95
2023-02-22T23:19:35.931Z,19.62
2023-02-22T23:22:06.446Z,19.60
2023-02-22T23:24:36.856Z,19.62
2023-02-22T23:27:10.134Z,21.17
2023-02-22T23:29:40.721Z,21.02
2023-02-22T23:32:09.576Z,20.62
2023-02-22T23:34:39.514Z,20.08
2023-02-22T23:37:08.975Z,17.77
2023-02-22T23:39:37.261Z,16.90
2023-02-22T23:42:07.382Z,17.15
2023-02-22T23:44:35.282Z,17.42
2023-02-22T23:47:03.364Z,18.67
2023-02-22T23:49:37.799Z,17.87
2023-02-22T23:52:07.356Z,17.77
2023-02-22T23:54:38.919Z,16.93
2023-02-22T23:57:08.105Z,18.77
2023-02-22T23:59:38.329Z,20.27
